logo
Rechercher aéroport 
image banner adimage banner adimage banner ad
image banner ad

SD9T - Dias Branco

Situé à Fortim, Brazil

ICAO - SD9T, IATA -

Données fournies par Airmate  

Information générale

Coordonnées: S4°25'52" W37°46'49"
Élévation : 52 feet MSL.
Variation magnétique : -20.766666667° East
Voir autres Aéroports à Ceará

Données opérationnelles

Special qualification required
Heure actuelle UTC:
Heure actuelle locale:
Météo à : - ( 0 km )
METAR: ZMCK 251630Z VRB02MPS CAVOK 05/01 Q1018 NOSIG
Voir NOTAMs / SUP AIP / TFR affectant cet aéroport [VIEW]
Fréquences de communication: [VIEW]

Pistes:

Coordonnées de l'aéroport

Adresse: Fortim Brazil

Vue satellite de SD9T